sensor_id;sensor_type;location;lat;lon;timestamp;P1;durP1;ratioP1;P2;durP2;ratioP2
58470;SDS011;44258;51.288;12.068;2023-03-31T00:02:19;4.93;;;1.70;;
58470;SDS011;44258;51.288;12.068;2023-03-31T00:04:47;4.13;;;1.65;;
58470;SDS011;44258;51.288;12.068;2023-03-31T00:07:17;5.13;;;2.05;;
58470;SDS011;44258;51.288;12.068;2023-03-31T00:09:49;6.38;;;1.83;;
58470;SDS011;44258;51.288;12.068;2023-03-31T00:12:20;4.95;;;1.65;;
58470;SDS011;44258;51.288;12.068;2023-03-31T00:14:47;5.18;;;1.85;;
58470;SDS011;44258;51.288;12.068;2023-03-31T00:17:13;4.57;;;1.70;;
58470;SDS011;44258;51.288;12.068;2023-03-31T00:19:40;7.65;;;1.83;;
58470;SDS011;44258;51.288;12.068;2023-03-31T00:22:07;6.20;;;1.70;;
58470;SDS011;44258;51.288;12.068;2023-03-31T00:24:34;3.55;;;1.63;;
58470;SDS011;44258;51.288;12.068;2023-03-31T00:27:02;5.47;;;1.70;;
58470;SDS011;44258;51.288;12.068;2023-03-31T00:29:31;5.72;;;1.77;;
58470;SDS011;44258;51.288;12.068;2023-03-31T00:32:00;7.18;;;2.22;;
58470;SDS011;44258;51.288;12.068;2023-03-31T00:34:27;5.90;;;1.70;;
58470;SDS011;44258;51.288;12.068;2023-03-31T00:36:54;3.50;;;1.45;;
58470;SDS011;44258;51.288;12.068;2023-03-31T00:39:27;4.65;;;1.70;;
58470;SDS011;44258;51.288;12.068;2023-03-31T00:42:00;4.60;;;1.40;;
58470;SDS011;44258;51.288;12.068;2023-03-31T00:44:27;4.40;;;1.63;;
58470;SDS011;44258;51.288;12.068;2023-03-31T00:47:00;4.40;;;1.60;;
58470;SDS011;44258;51.288;12.068;2023-03-31T00:49:32;5.90;;;1.83;;
58470;SDS011;44258;51.288;12.068;2023-03-31T00:52:01;8.13;;;1.80;;
58470;SDS011;44258;51.288;12.068;2023-03-31T00:54:31;4.88;;;1.42;;
58470;SDS011;44258;51.288;12.068;2023-03-31T00:57:01;5.93;;;1.60;;
58470;SDS011;44258;51.288;12.068;2023-03-31T00:59:36;6.07;;;1.85;;
58470;SDS011;44258;51.288;12.068;2023-03-31T01:02:07;7.28;;;1.95;;
58470;SDS011;44258;51.288;12.068;2023-03-31T01:04:35;7.05;;;2.05;;
58470;SDS011;44258;51.288;12.068;2023-03-31T01:07:08;5.18;;;1.90;;
58470;SDS011;44258;51.288;12.068;2023-03-31T01:09:52;6.72;;;1.80;;
58470;SDS011;44258;51.288;12.068;2023-03-31T01:12:27;4.40;;;1.60;;
58470;SDS011;44258;51.288;12.068;2023-03-31T01:14:55;5.78;;;1.92;;
58470;SDS011;44258;51.288;12.068;2023-03-31T01:17:23;3.40;;;1.55;;
58470;SDS011;44258;51.288;12.068;2023-03-31T01:19:56;3.95;;;1.52;;
58470;SDS011;44258;51.288;12.068;2023-03-31T01:28:42;6.10;;;1.77;;
58470;SDS011;44258;51.288;12.068;2023-03-31T01:40:26;5.97;;;1.92;;
58470;SDS011;44258;51.288;12.068;2023-03-31T01:43:02;9.68;;;1.90;;
58470;SDS011;44258;51.288;12.068;2023-03-31T01:45:39;10.30;;;2.15;;
58470;SDS011;44258;51.288;12.068;2023-03-31T01:48:20;6.32;;;1.83;;
58470;SDS011;44258;51.288;12.068;2023-03-31T01:50:58;8.07;;;2.17;;
58470;SDS011;44258;51.288;12.068;2023-03-31T01:53:29;4.60;;;1.95;;
58470;SDS011;44258;51.288;12.068;2023-03-31T01:56:03;7.00;;;1.90;;
58470;SDS011;44258;51.288;12.068;2023-03-31T01:58:37;8.77;;;2.00;;
58470;SDS011;44258;51.288;12.068;2023-03-31T02:01:09;7.20;;;1.88;;
58470;SDS011;44258;51.288;12.068;2023-03-31T02:03:44;8.73;;;2.00;;
58470;SDS011;44258;51.288;12.068;2023-03-31T02:06:15;7.13;;;2.10;;
58470;SDS011;44258;51.288;12.068;2023-03-31T02:08:49;5.18;;;1.88;;
58470;SDS011;44258;51.288;12.068;2023-03-31T02:11:21;5.57;;;2.15;;
58470;SDS011;44258;51.288;12.068;2023-03-31T02:13:50;4.88;;;1.95;;
58470;SDS011;44258;51.288;12.068;2023-03-31T02:16:25;6.03;;;2.25;;
58470;SDS011;44258;51.288;12.068;2023-03-31T02:18:55;7.05;;;1.88;;
58470;SDS011;44258;51.288;12.068;2023-03-31T02:21:26;7.78;;;2.00;;
58470;SDS011;44258;51.288;12.068;2023-03-31T02:23:53;7.30;;;2.40;;
58470;SDS011;44258;51.288;12.068;2023-03-31T02:26:24;6.38;;;1.83;;
58470;SDS011;44258;51.288;12.068;2023-03-31T02:28:56;7.20;;;1.92;;
58470;SDS011;44258;51.288;12.068;2023-03-31T02:31:25;7.57;;;2.40;;
58470;SDS011;44258;51.288;12.068;2023-03-31T02:33:54;8.82;;;2.10;;
58470;SDS011;44258;51.288;12.068;2023-03-31T02:36:21;6.40;;;2.03;;
58470;SDS011;44258;51.288;12.068;2023-03-31T02:38:49;5.90;;;1.92;;
58470;SDS011;44258;51.288;12.068;2023-03-31T02:41:19;6.45;;;2.05;;
58470;SDS011;44258;51.288;12.068;2023-03-31T02:43:47;7.10;;;2.40;;
58470;SDS011;44258;51.288;12.068;2023-03-31T02:46:14;5.95;;;1.83;;
58470;SDS011;44258;51.288;12.068;2023-03-31T02:48:41;4.70;;;1.75;;
58470;SDS011;44258;51.288;12.068;2023-03-31T02:54:13;4.47;;;1.80;;
58470;SDS011;44258;51.288;12.068;2023-03-31T02:57:11;7.30;;;2.80;;
58470;SDS011;44258;51.288;12.068;2023-03-31T02:59:54;8.20;;;1.77;;
58470;SDS011;44258;51.288;12.068;2023-03-31T03:02:36;5.03;;;1.80;;
58470;SDS011;44258;51.288;12.068;2023-03-31T03:05:19;7.53;;;1.95;;
58470;SDS011;44258;51.288;12.068;2023-03-31T03:07:54;5.15;;;1.60;;
58470;SDS011;44258;51.288;12.068;2023-03-31T03:10:29;5.50;;;1.92;;
58470;SDS011;44258;51.288;12.068;2023-03-31T03:13:07;4.80;;;1.80;;
58470;SDS011;44258;51.288;12.068;2023-03-31T03:15:43;4.13;;;1.67;;
58470;SDS011;44258;51.288;12.068;2023-03-31T03:18:13;5.13;;;2.22;;
58470;SDS011;44258;51.288;12.068;2023-03-31T03:20:44;7.88;;;2.10;;
58470;SDS011;44258;51.288;12.068;2023-03-31T03:23:13;8.25;;;2.33;;
58470;SDS011;44258;51.288;12.068;2023-03-31T03:25:39;7.55;;;1.83;;
58470;SDS011;44258;51.288;12.068;2023-03-31T03:28:06;7.07;;;2.00;;
58470;SDS011;44258;51.288;12.068;2023-03-31T03:30:33;6.35;;;2.03;;
58470;SDS011;44258;51.288;12.068;2023-03-31T03:33:01;6.63;;;2.28;;
58470;SDS011;44258;51.288;12.068;2023-03-31T03:35:30;3.85;;;1.70;;
58470;SDS011;44258;51.288;12.068;2023-03-31T03:37:56;6.72;;;2.10;;
58470;SDS011;44258;51.288;12.068;2023-03-31T03:40:23;5.00;;;2.55;;
58470;SDS011;44258;51.288;12.068;2023-03-31T03:42:54;6.35;;;1.92;;
58470;SDS011;44258;51.288;12.068;2023-03-31T03:45:21;8.15;;;2.28;;
58470;SDS011;44258;51.288;12.068;2023-03-31T03:47:47;7.97;;;2.40;;
58470;SDS011;44258;51.288;12.068;2023-03-31T03:50:19;8.18;;;2.33;;
58470;SDS011;44258;51.288;12.068;2023-03-31T03:52:45;7.97;;;2.17;;
58470;SDS011;44258;51.288;12.068;2023-03-31T03:55:11;6.72;;;2.20;;
58470;SDS011;44258;51.288;12.068;2023-03-31T03:57:39;8.15;;;2.10;;
58470;SDS011;44258;51.288;12.068;2023-03-31T04:00:06;6.15;;;2.10;;
58470;SDS011;44258;51.288;12.068;2023-03-31T04:02:36;4.32;;;1.83;;
58470;SDS011;44258;51.288;12.068;2023-03-31T04:05:03;8.80;;;2.47;;
58470;SDS011;44258;51.288;12.068;2023-03-31T04:07:32;8.45;;;1.77;;
58470;SDS011;44258;51.288;12.068;2023-03-31T04:09:59;6.18;;;1.60;;
58470;SDS011;44258;51.288;12.068;2023-03-31T04:12:25;4.95;;;2.25;;
58470;SDS011;44258;51.288;12.068;2023-03-31T04:14:51;5.45;;;1.40;;
58470;SDS011;44258;51.288;12.068;2023-03-31T04:17:18;5.57;;;2.00;;
58470;SDS011;44258;51.288;12.068;2023-03-31T04:19:56;3.67;;;1.70;;
58470;SDS011;44258;51.288;12.068;2023-03-31T04:22:29;4.75;;;1.77;;
58470;SDS011;44258;51.288;12.068;2023-03-31T04:25:02;6.90;;;2.30;;
58470;SDS011;44258;51.288;12.068;2023-03-31T04:27:28;6.18;;;1.80;;
58470;SDS011;44258;51.288;12.068;2023-03-31T04:29:58;7.47;;;2.00;;
58470;SDS011;44258;51.288;12.068;2023-03-31T04:32:24;9.10;;;2.10;;
58470;SDS011;44258;51.288;12.068;2023-03-31T04:34:52;5.97;;;1.80;;
58470;SDS011;44258;51.288;12.068;2023-03-31T04:37:30;4.63;;;1.80;;
58470;SDS011;44258;51.288;12.068;2023-03-31T04:40:04;7.50;;;1.80;;
58470;SDS011;44258;51.288;12.068;2023-03-31T04:42:32;6.70;;;1.80;;
58470;SDS011;44258;51.288;12.068;2023-03-31T04:44:59;8.20;;;2.33;;
58470;SDS011;44258;51.288;12.068;2023-03-31T04:47:25;6.22;;;1.95;;
58470;SDS011;44258;51.288;12.068;2023-03-31T04:49:52;5.38;;;1.77;;
58470;SDS011;44258;51.288;12.068;2023-03-31T04:52:19;9.23;;;1.95;;
58470;SDS011;44258;51.288;12.068;2023-03-31T04:54:48;7.15;;;2.10;;
58470;SDS011;44258;51.288;12.068;2023-03-31T04:57:17;6.75;;;1.77;;
58470;SDS011;44258;51.288;12.068;2023-03-31T04:59:43;4.47;;;1.60;;
58470;SDS011;44258;51.288;12.068;2023-03-31T05:02:10;5.40;;;1.55;;
58470;SDS011;44258;51.288;12.068;2023-03-31T05:04:36;6.13;;;1.65;;
58470;SDS011;44258;51.288;12.068;2023-03-31T05:07:03;4.03;;;1.55;;
58470;SDS011;44258;51.288;12.068;2023-03-31T05:09:30;5.20;;;1.40;;
58470;SDS011;44258;51.288;12.068;2023-03-31T05:11:56;4.30;;;1.30;;
58470;SDS011;44258;51.288;12.068;2023-03-31T05:14:24;4.38;;;1.60;;
58470;SDS011;44258;51.288;12.068;2023-03-31T05:16:51;5.80;;;1.95;;
58470;SDS011;44258;51.288;12.068;2023-03-31T05:19:18;3.38;;;1.55;;
58470;SDS011;44258;51.288;12.068;2023-03-31T05:21:44;4.20;;;1.55;;
58470;SDS011;44258;51.288;12.068;2023-03-31T05:24:13;4.30;;;1.67;;
58470;SDS011;44258;51.288;12.068;2023-03-31T05:26:39;4.70;;;1.77;;
58470;SDS011;44258;51.288;12.068;2023-03-31T05:29:08;4.85;;;1.48;;
58470;SDS011;44258;51.288;12.068;2023-03-31T05:31:39;6.35;;;1.67;;
58470;SDS011;44258;51.288;12.068;2023-03-31T05:34:05;3.00;;;1.50;;
58470;SDS011;44258;51.288;12.068;2023-03-31T05:36:32;6.40;;;1.60;;
58470;SDS011;44258;51.288;12.068;2023-03-31T05:38:59;4.60;;;1.50;;
58470;SDS011;44258;51.288;12.068;2023-03-31T05:41:25;8.10;;;2.00;;
58470;SDS011;44258;51.288;12.068;2023-03-31T05:43:52;5.20;;;1.80;;
58470;SDS011;44258;51.288;12.068;2023-03-31T05:46:19;6.38;;;2.00;;
58470;SDS011;44258;51.288;12.068;2023-03-31T05:48:52;6.63;;;2.05;;
58470;SDS011;44258;51.288;12.068;2023-03-31T05:51:22;5.53;;;1.92;;
58470;SDS011;44258;51.288;12.068;2023-03-31T05:53:49;7.03;;;2.10;;
58470;SDS011;44258;51.288;12.068;2023-03-31T05:56:16;5.03;;;2.20;;
58470;SDS011;44258;51.288;12.068;2023-03-31T05:58:43;8.65;;;2.38;;
58470;SDS011;44258;51.288;12.068;2023-03-31T06:01:10;7.63;;;2.40;;
58470;SDS011;44258;51.288;12.068;2023-03-31T06:03:39;6.55;;;2.95;;
58470;SDS011;44258;51.288;12.068;2023-03-31T06:06:08;5.72;;;1.90;;
58470;SDS011;44258;51.288;12.068;2023-03-31T06:08:37;7.72;;;2.33;;
58470;SDS011;44258;51.288;12.068;2023-03-31T06:11:04;9.10;;;2.50;;
58470;SDS011;44258;51.288;12.068;2023-03-31T06:13:33;7.93;;;2.13;;
58470;SDS011;44258;51.288;12.068;2023-03-31T06:16:00;7.88;;;2.20;;
58470;SDS011;44258;51.288;12.068;2023-03-31T06:18:27;7.13;;;2.17;;
58470;SDS011;44258;51.288;12.068;2023-03-31T06:20:55;5.22;;;2.08;;
58470;SDS011;44258;51.288;12.068;2023-03-31T06:23:24;5.95;;;2.30;;
58470;SDS011;44258;51.288;12.068;2023-03-31T06:25:52;7.85;;;2.28;;
58470;SDS011;44258;51.288;12.068;2023-03-31T06:28:19;8.55;;;2.10;;
58470;SDS011;44258;51.288;12.068;2023-03-31T06:30:46;5.68;;;2.13;;
58470;SDS011;44258;51.288;12.068;2023-03-31T06:33:13;6.57;;;2.40;;
58470;SDS011;44258;51.288;12.068;2023-03-31T06:35:40;4.95;;;2.00;;
58470;SDS011;44258;51.288;12.068;2023-03-31T06:38:07;5.82;;;2.05;;
58470;SDS011;44258;51.288;12.068;2023-03-31T06:40:37;4.70;;;1.63;;
58470;SDS011;44258;51.288;12.068;2023-03-31T06:43:04;6.15;;;2.03;;
58470;SDS011;44258;51.288;12.068;2023-03-31T06:45:30;5.00;;;1.90;;
58470;SDS011;44258;51.288;12.068;2023-03-31T06:47:57;9.40;;;2.30;;
58470;SDS011;44258;51.288;12.068;2023-03-31T06:50:23;5.28;;;2.10;;
58470;SDS011;44258;51.288;12.068;2023-03-31T06:52:50;7.00;;;2.08;;
58470;SDS011;44258;51.288;12.068;2023-03-31T06:55:19;10.60;;;2.10;;
58470;SDS011;44258;51.288;12.068;2023-03-31T06:57:49;7.72;;;2.20;;
58470;SDS011;44258;51.288;12.068;2023-03-31T07:00:16;6.85;;;2.55;;
58470;SDS011;44258;51.288;12.068;2023-03-31T07:02:43;9.10;;;3.22;;
58470;SDS011;44258;51.288;12.068;2023-03-31T07:05:09;5.78;;;2.47;;
58470;SDS011;44258;51.288;12.068;2023-03-31T07:07:36;7.63;;;2.60;;
58470;SDS011;44258;51.288;12.068;2023-03-31T07:10:03;9.95;;;2.72;;
58470;SDS011;44258;51.288;12.068;2023-03-31T07:12:31;8.15;;;2.50;;
58470;SDS011;44258;51.288;12.068;2023-03-31T07:14:59;5.50;;;1.98;;
58470;SDS011;44258;51.288;12.068;2023-03-31T07:17:26;5.95;;;1.70;;
58470;SDS011;44258;51.288;12.068;2023-03-31T07:19:53;6.95;;;2.35;;
58470;SDS011;44258;51.288;12.068;2023-03-31T07:22:20;7.65;;;1.80;;
58470;SDS011;44258;51.288;12.068;2023-03-31T07:24:46;7.65;;;2.00;;
58470;SDS011;44258;51.288;12.068;2023-03-31T07:27:14;6.85;;;1.98;;
58470;SDS011;44258;51.288;12.068;2023-03-31T07:29:43;6.32;;;1.80;;
58470;SDS011;44258;51.288;12.068;2023-03-31T07:32:11;7.70;;;2.50;;
58470;SDS011;44258;51.288;12.068;2023-03-31T07:34:38;9.60;;;2.80;;
58470;SDS011;44258;51.288;12.068;2023-03-31T07:37:06;6.95;;;2.60;;
58470;SDS011;44258;51.288;12.068;2023-03-31T07:39:33;6.60;;;2.53;;
58470;SDS011;44258;51.288;12.068;2023-03-31T07:42:02;8.63;;;2.38;;
58470;SDS011;44258;51.288;12.068;2023-03-31T07:44:32;7.13;;;2.38;;
58470;SDS011;44258;51.288;12.068;2023-03-31T07:46:59;8.07;;;2.30;;
58470;SDS011;44258;51.288;12.068;2023-03-31T07:49:30;6.18;;;2.60;;
58470;SDS011;44258;51.288;12.068;2023-03-31T07:51:57;6.25;;;2.10;;
58470;SDS011;44258;51.288;12.068;2023-03-31T07:54:24;9.60;;;2.45;;
58470;SDS011;44258;51.288;12.068;2023-03-31T07:56:51;4.47;;;2.00;;
58470;SDS011;44258;51.288;12.068;2023-03-31T07:59:21;8.55;;;2.10;;
58470;SDS011;44258;51.288;12.068;2023-03-31T08:01:47;6.07;;;1.85;;
58470;SDS011;44258;51.288;12.068;2023-03-31T08:04:14;6.13;;;2.33;;
58470;SDS011;44258;51.288;12.068;2023-03-31T08:06:42;8.27;;;2.28;;
58470;SDS011;44258;51.288;12.068;2023-03-31T08:09:08;7.13;;;2.10;;
58470;SDS011;44258;51.288;12.068;2023-03-31T08:11:44;8.65;;;2.35;;
58470;SDS011;44258;51.288;12.068;2023-03-31T08:14:11;7.18;;;2.10;;
58470;SDS011;44258;51.288;12.068;2023-03-31T08:16:37;6.50;;;2.35;;
58470;SDS011;44258;51.288;12.068;2023-03-31T08:19:04;8.27;;;2.20;;
58470;SDS011;44258;51.288;12.068;2023-03-31T08:21:31;5.57;;;1.92;;
58470;SDS011;44258;51.288;12.068;2023-03-31T08:24:00;8.77;;;2.50;;
58470;SDS011;44258;51.288;12.068;2023-03-31T08:26:34;5.75;;;2.30;;
58470;SDS011;44258;51.288;12.068;2023-03-31T08:29:00;8.50;;;2.08;;
58470;SDS011;44258;51.288;12.068;2023-03-31T08:31:28;4.70;;;2.13;;
58470;SDS011;44258;51.288;12.068;2023-03-31T08:34:01;6.72;;;2.20;;
58470;SDS011;44258;51.288;12.068;2023-03-31T08:36:28;8.82;;;2.15;;
58470;SDS011;44258;51.288;12.068;2023-03-31T08:38:55;6.50;;;2.00;;
58470;SDS011;44258;51.288;12.068;2023-03-31T08:41:34;6.50;;;2.00;;
58470;SDS011;44258;51.288;12.068;2023-03-31T08:44:07;7.60;;;2.40;;
58470;SDS011;44258;51.288;12.068;2023-03-31T08:46:36;5.28;;;1.85;;
58470;SDS011;44258;51.288;12.068;2023-03-31T08:49:04;7.47;;;2.10;;
58470;SDS011;44258;51.288;12.068;2023-03-31T08:51:36;6.60;;;2.20;;
58470;SDS011;44258;51.288;12.068;2023-03-31T08:54:08;4.93;;;1.83;;
58470;SDS011;44258;51.288;12.068;2023-03-31T08:56:43;6.47;;;1.95;;
58470;SDS011;44258;51.288;12.068;2023-03-31T08:59:16;4.70;;;1.50;;
58470;SDS011;44258;51.288;12.068;2023-03-31T09:01:52;5.22;;;1.60;;
58470;SDS011;44258;51.288;12.068;2023-03-31T09:04:35;6.90;;;2.42;;
58470;SDS011;44258;51.288;12.068;2023-03-31T09:07:17;5.03;;;1.60;;
58470;SDS011;44258;51.288;12.068;2023-03-31T09:09:57;5.28;;;1.77;;
58470;SDS011;44258;51.288;12.068;2023-03-31T09:12:36;7.95;;;1.80;;
58470;SDS011;44258;51.288;12.068;2023-03-31T09:15:16;4.05;;;1.50;;
58470;SDS011;44258;51.288;12.068;2023-03-31T09:17:50;3.70;;;1.45;;
58470;SDS011;44258;51.288;12.068;2023-03-31T09:20:29;7.38;;;2.47;;
58470;SDS011;44258;51.288;12.068;2023-03-31T09:23:00;3.33;;;1.40;;
58470;SDS011;44258;51.288;12.068;2023-03-31T09:25:35;6.05;;;1.73;;
58470;SDS011;44258;51.288;12.068;2023-03-31T09:28:10;6.50;;;1.60;;
58470;SDS011;44258;51.288;12.068;2023-03-31T09:30:41;3.42;;;1.50;;
58470;SDS011;44258;51.288;12.068;2023-03-31T09:33:10;5.95;;;2.20;;
58470;SDS011;44258;51.288;12.068;2023-03-31T09:35:42;3.65;;;1.55;;
58470;SDS011;44258;51.288;12.068;2023-03-31T09:38:08;4.80;;;1.75;;
58470;SDS011;44258;51.288;12.068;2023-03-31T09:40:37;4.88;;;1.70;;
58470;SDS011;44258;51.288;12.068;2023-03-31T09:43:05;6.28;;;1.70;;
58470;SDS011;44258;51.288;12.068;2023-03-31T09:45:39;5.38;;;1.63;;
58470;SDS011;44258;51.288;12.068;2023-03-31T09:48:08;5.47;;;1.55;;
58470;SDS011;44258;51.288;12.068;2023-03-31T09:50:45;7.43;;;1.92;;
58470;SDS011;44258;51.288;12.068;2023-03-31T09:53:31;4.55;;;1.60;;
58470;SDS011;44258;51.288;12.068;2023-03-31T09:56:05;4.00;;;1.55;;
58470;SDS011;44258;51.288;12.068;2023-03-31T09:58:40;5.18;;;1.77;;
58470;SDS011;44258;51.288;12.068;2023-03-31T10:01:07;5.43;;;1.80;;
58470;SDS011;44258;51.288;12.068;2023-03-31T10:03:42;7.75;;;1.60;;
58470;SDS011;44258;51.288;12.068;2023-03-31T10:06:20;4.65;;;1.67;;
58470;SDS011;44258;51.288;12.068;2023-03-31T10:08:48;4.03;;;1.60;;
58470;SDS011;44258;51.288;12.068;2023-03-31T10:11:19;5.53;;;1.70;;
58470;SDS011;44258;51.288;12.068;2023-03-31T10:13:48;4.45;;;1.67;;
58470;SDS011;44258;51.288;12.068;2023-03-31T10:16:32;8.10;;;1.90;;
58470;SDS011;44258;51.288;12.068;2023-03-31T10:19:11;5.32;;;2.00;;
58470;SDS011;44258;51.288;12.068;2023-03-31T10:21:39;5.65;;;2.10;;
58470;SDS011;44258;51.288;12.068;2023-03-31T10:24:23;6.80;;;2.05;;
58470;SDS011;44258;51.288;12.068;2023-03-31T10:26:53;6.25;;;2.00;;
58470;SDS011;44258;51.288;12.068;2023-03-31T10:29:25;6.65;;;2.20;;
58470;SDS011;44258;51.288;12.068;2023-03-31T10:32:11;5.70;;;2.30;;
58470;SDS011;44258;51.288;12.068;2023-03-31T10:34:50;4.85;;;2.15;;
58470;SDS011;44258;51.288;12.068;2023-03-31T10:37:18;5.70;;;2.45;;
58470;SDS011;44258;51.288;12.068;2023-03-31T10:39:55;7.57;;;2.28;;
58470;SDS011;44258;51.288;12.068;2023-03-31T10:42:22;6.45;;;2.22;;
58470;SDS011;44258;51.288;12.068;2023-03-31T10:45:09;8.48;;;2.20;;
58470;SDS011;44258;51.288;12.068;2023-03-31T10:47:39;6.57;;;2.05;;
58470;SDS011;44258;51.288;12.068;2023-03-31T10:50:12;5.68;;;2.08;;
58470;SDS011;44258;51.288;12.068;2023-03-31T10:52:42;5.95;;;2.60;;
58470;SDS011;44258;51.288;12.068;2023-03-31T10:55:17;9.52;;;2.80;;
58470;SDS011;44258;51.288;12.068;2023-03-31T10:57:52;14.27;;;4.00;;
58470;SDS011;44258;51.288;12.068;2023-03-31T11:00:25;13.20;;;3.88;;
58470;SDS011;44258;51.288;12.068;2023-03-31T11:03:09;10.55;;;4.22;;
58470;SDS011;44258;51.288;12.068;2023-03-31T11:05:51;17.95;;;4.35;;
58470;SDS011;44258;51.288;12.068;2023-03-31T11:08:30;9.85;;;3.97;;
58470;SDS011;44258;51.288;12.068;2023-03-31T11:11:14;14.60;;;5.22;;
58470;SDS011;44258;51.288;12.068;2023-03-31T11:13:51;10.85;;;3.58;;
58470;SDS011;44258;51.288;12.068;2023-03-31T11:16:29;6.93;;;2.80;;
58470;SDS011;44258;51.288;12.068;2023-03-31T11:19:10;6.93;;;2.60;;
58470;SDS011;44258;51.288;12.068;2023-03-31T11:21:53;9.57;;;3.05;;
58470;SDS011;44258;51.288;12.068;2023-03-31T11:24:35;8.45;;;3.20;;
58470;SDS011;44258;51.288;12.068;2023-03-31T11:27:24;9.43;;;3.58;;
58470;SDS011;44258;51.288;12.068;2023-03-31T11:30:06;9.68;;;3.13;;
58470;SDS011;44258;51.288;12.068;2023-03-31T11:32:54;7.88;;;2.85;;
58470;SDS011;44258;51.288;12.068;2023-03-31T11:35:43;7.85;;;2.78;;
58470;SDS011;44258;51.288;12.068;2023-03-31T11:40:58;10.35;;;3.50;;
58470;SDS011;44258;51.288;12.068;2023-03-31T11:43:29;8.43;;;3.45;;
58470;SDS011;44258;51.288;12.068;2023-03-31T11:46:00;10.82;;;3.17;;
58470;SDS011;44258;51.288;12.068;2023-03-31T11:48:34;7.07;;;2.53;;
58470;SDS011;44258;51.288;12.068;2023-03-31T11:51:11;8.15;;;2.80;;
58470;SDS011;44258;51.288;12.068;2023-03-31T11:53:41;6.07;;;2.22;;
58470;SDS011;44258;51.288;12.068;2023-03-31T11:56:10;5.68;;;2.38;;
58470;SDS011;44258;51.288;12.068;2023-03-31T11:58:39;5.78;;;1.88;;
58470;SDS011;44258;51.288;12.068;2023-03-31T12:01:13;3.80;;;1.88;;
58470;SDS011;44258;51.288;12.068;2023-03-31T12:03:54;5.30;;;2.00;;
58470;SDS011;44258;51.288;12.068;2023-03-31T12:06:26;7.20;;;1.95;;
58470;SDS011;44258;51.288;12.068;2023-03-31T12:09:07;5.25;;;1.90;;
58470;SDS011;44258;51.288;12.068;2023-03-31T12:11:45;6.10;;;2.08;;
58470;SDS011;44258;51.288;12.068;2023-03-31T12:14:26;4.85;;;1.58;;
58470;SDS011;44258;51.288;12.068;2023-03-31T12:17:09;4.63;;;1.85;;
58470;SDS011;44258;51.288;12.068;2023-03-31T12:19:41;3.92;;;1.88;;
58470;SDS011;44258;51.288;12.068;2023-03-31T12:22:16;4.85;;;1.90;;
58470;SDS011;44258;51.288;12.068;2023-03-31T12:24:51;5.20;;;2.03;;
58470;SDS011;44258;51.288;12.068;2023-03-31T12:27:19;2.63;;;1.55;;
58470;SDS011;44258;51.288;12.068;2023-03-31T12:29:53;4.00;;;1.80;;
58470;SDS011;44258;51.288;12.068;2023-03-31T12:32:32;3.88;;;1.98;;
58470;SDS011;44258;51.288;12.068;2023-03-31T12:35:09;4.65;;;1.92;;
58470;SDS011;44258;51.288;12.068;2023-03-31T12:37:56;5.88;;;1.92;;
58470;SDS011;44258;51.288;12.068;2023-03-31T12:40:55;4.35;;;1.83;;
58470;SDS011;44258;51.288;12.068;2023-03-31T12:43:54;4.93;;;1.60;;
58470;SDS011;44258;51.288;12.068;2023-03-31T12:46:35;2.63;;;1.00;;
58470;SDS011;44258;51.288;12.068;2023-03-31T12:49:25;4.72;;;1.35;;
58470;SDS011;44258;51.288;12.068;2023-03-31T12:52:07;2.10;;;0.82;;
58470;SDS011;44258;51.288;12.068;2023-03-31T12:57:49;3.38;;;1.00;;
58470;SDS011;44258;51.288;12.068;2023-03-31T13:00:20;2.50;;;1.15;;
58470;SDS011;44258;51.288;12.068;2023-03-31T13:02:49;2.08;;;1.23;;
58470;SDS011;44258;51.288;12.068;2023-03-31T13:05:46;2.05;;;0.90;;
58470;SDS011;44258;51.288;12.068;2023-03-31T13:11:21;2.15;;;0.73;;
58470;SDS011;44258;51.288;12.068;2023-03-31T13:14:00;1.73;;;0.70;;
58470;SDS011;44258;51.288;12.068;2023-03-31T13:16:28;2.25;;;0.95;;
58470;SDS011;44258;51.288;12.068;2023-03-31T13:19:02;2.45;;;0.80;;
58470;SDS011;44258;51.288;12.068;2023-03-31T13:21:29;2.72;;;0.90;;
58470;SDS011;44258;51.288;12.068;2023-03-31T13:23:59;1.67;;;0.98;;
58470;SDS011;44258;51.288;12.068;2023-03-31T13:26:37;1.88;;;0.80;;
58470;SDS011;44258;51.288;12.068;2023-03-31T13:29:09;1.50;;;0.73;;
58470;SDS011;44258;51.288;12.068;2023-03-31T13:34:43;2.03;;;0.80;;
58470;SDS011;44258;51.288;12.068;2023-03-31T13:37:15;2.38;;;1.05;;
58470;SDS011;44258;51.288;12.068;2023-03-31T13:39:58;2.60;;;1.05;;
58470;SDS011;44258;51.288;12.068;2023-03-31T13:42:51;2.75;;;1.13;;
58470;SDS011;44258;51.288;12.068;2023-03-31T13:45:47;2.05;;;0.90;;
58470;SDS011;44258;51.288;12.068;2023-03-31T13:48:48;3.70;;;1.20;;
58470;SDS011;44258;51.288;12.068;2023-03-31T13:51:22;1.20;;;0.80;;
58470;SDS011;44258;51.288;12.068;2023-03-31T13:54:07;3.33;;;1.00;;
58470;SDS011;44258;51.288;12.068;2023-03-31T13:56:51;5.60;;;1.15;;
58470;SDS011;44258;51.288;12.068;2023-03-31T13:59:36;4.05;;;1.30;;
58470;SDS011;44258;51.288;12.068;2023-03-31T14:02:35;3.55;;;1.40;;
58470;SDS011;44258;51.288;12.068;2023-03-31T14:05:22;2.42;;;1.05;;
58470;SDS011;44258;51.288;12.068;2023-03-31T14:07:54;1.17;;;1.00;;
58470;SDS011;44258;51.288;12.068;2023-03-31T14:10:25;4.45;;;1.45;;
58470;SDS011;44258;51.288;12.068;2023-03-31T14:13:05;4.03;;;1.50;;
58470;SDS011;44258;51.288;12.068;2023-03-31T14:15:34;4.38;;;1.40;;
58470;SDS011;44258;51.288;12.068;2023-03-31T14:18:02;3.85;;;1.40;;
58470;SDS011;44258;51.288;12.068;2023-03-31T14:20:32;3.20;;;1.10;;
58470;SDS011;44258;51.288;12.068;2023-03-31T14:23:18;2.70;;;0.93;;
58470;SDS011;44258;51.288;12.068;2023-03-31T14:25:56;1.48;;;0.63;;
58470;SDS011;44258;51.288;12.068;2023-03-31T14:28:42;3.30;;;1.00;;
58470;SDS011;44258;51.288;12.068;2023-03-31T14:31:28;2.78;;;1.10;;
58470;SDS011;44258;51.288;12.068;2023-03-31T14:34:09;2.92;;;1.15;;
58470;SDS011;44258;51.288;12.068;2023-03-31T14:36:50;5.57;;;1.60;;
58470;SDS011;44258;51.288;12.068;2023-03-31T14:39:25;4.53;;;1.30;;
58470;SDS011;44258;51.288;12.068;2023-03-31T14:41:56;6.35;;;1.85;;
58470;SDS011;44258;51.288;12.068;2023-03-31T14:44:28;3.67;;;1.10;;
58470;SDS011;44258;51.288;12.068;2023-03-31T14:47:01;3.65;;;1.50;;
58470;SDS011;44258;51.288;12.068;2023-03-31T14:49:32;3.30;;;1.20;;
58470;SDS011;44258;51.288;12.068;2023-03-31T14:52:01;3.88;;;1.63;;
58470;SDS011;44258;51.288;12.068;2023-03-31T14:54:38;3.75;;;1.17;;
58470;SDS011;44258;51.288;12.068;2023-03-31T14:57:05;5.70;;;1.40;;
58470;SDS011;44258;51.288;12.068;2023-03-31T14:59:34;3.53;;;1.50;;
58470;SDS011;44258;51.288;12.068;2023-03-31T15:02:06;2.88;;;1.38;;
58470;SDS011;44258;51.288;12.068;2023-03-31T15:04:40;5.18;;;1.05;;
58470;SDS011;44258;51.288;12.068;2023-03-31T15:07:13;4.35;;;1.13;;
58470;SDS011;44258;51.288;12.068;2023-03-31T15:09:44;3.17;;;1.08;;
58470;SDS011;44258;51.288;12.068;2023-03-31T15:12:14;2.85;;;0.90;;
58470;SDS011;44258;51.288;12.068;2023-03-31T15:14:53;1.42;;;0.60;;
58470;SDS011;44258;51.288;12.068;2023-03-31T15:17:23;1.17;;;0.60;;
58470;SDS011;44258;51.288;12.068;2023-03-31T15:19:54;0.77;;;0.50;;
58470;SDS011;44258;51.288;12.068;2023-03-31T15:22:26;3.67;;;1.33;;
58470;SDS011;44258;51.288;12.068;2023-03-31T15:24:54;4.13;;;1.67;;
58470;SDS011;44258;51.288;12.068;2023-03-31T15:27:27;5.18;;;1.60;;
58470;SDS011;44258;51.288;12.068;2023-03-31T15:30:00;4.53;;;1.58;;
58470;SDS011;44258;51.288;12.068;2023-03-31T15:32:30;5.97;;;2.50;;
58470;SDS011;44258;51.288;12.068;2023-03-31T15:38:36;5.45;;;2.22;;